sensor_id;sensor_type;location;lat;lon;timestamp;pressure;altitude;pressure_sealevel;temperature;humidity
22651;BME280;11492;42.646;23.400;2023-03-16T00:00:39;94172.34;;;4.21;78.10
22651;BME280;11492;42.646;23.400;2023-03-16T00:03:05;94160.22;;;4.30;77.32
22651;BME280;11492;42.646;23.400;2023-03-16T00:05:30;94158.94;;;4.26;77.62
22651;BME280;11492;42.646;23.400;2023-03-16T00:07:56;94174.41;;;4.33;77.89
22651;BME280;11492;42.646;23.400;2023-03-16T00:10:21;94190.22;;;4.21;76.88
22651;BME280;11492;42.646;23.400;2023-03-16T00:12:54;94167.41;;;4.03;77.63
22651;BME280;11492;42.646;23.400;2023-03-16T00:15:20;94179.03;;;4.14;77.38
22651;BME280;11492;42.646;23.400;2023-03-16T00:17:46;94184.16;;;4.06;77.54
22651;BME280;11492;42.646;23.400;2023-03-16T00:20:14;94174.91;;;3.97;77.79
22651;BME280;11492;42.646;23.400;2023-03-16T00:22:40;94181.16;;;3.95;77.26
22651;BME280;11492;42.646;23.400;2023-03-16T00:25:07;94189.25;;;3.82;76.99
22651;BME280;11492;42.646;23.400;2023-03-16T00:27:34;94191.34;;;3.71;77.84
22651;BME280;11492;42.646;23.400;2023-03-16T00:29:59;94191.97;;;3.65;78.98
22651;BME280;11492;42.646;23.400;2023-03-16T00:32:32;94184.34;;;3.81;79.31
22651;BME280;11492;42.646;23.400;2023-03-16T00:34:59;94187.84;;;3.96;78.49
22651;BME280;11492;42.646;23.400;2023-03-16T00:37:27;94195.47;;;4.03;79.11
22651;BME280;11492;42.646;23.400;2023-03-16T00:39:53;94196.63;;;3.85;78.12
22651;BME280;11492;42.646;23.400;2023-03-16T00:42:24;94197.72;;;3.91;78.11
22651;BME280;11492;42.646;23.400;2023-03-16T00:44:54;94187.03;;;3.64;78.86
22651;BME280;11492;42.646;23.400;2023-03-16T00:47:23;94206.53;;;3.88;78.55
22651;BME280;11492;42.646;23.400;2023-03-16T00:49:48;94205.25;;;3.84;79.24
22651;BME280;11492;42.646;23.400;2023-03-16T00:52:14;94203.13;;;3.72;79.19
22651;BME280;11492;42.646;23.400;2023-03-16T00:54:43;94209.88;;;3.73;78.89
22651;BME280;11492;42.646;23.400;2023-03-16T00:57:12;94212.72;;;3.70;79.78
22651;BME280;11492;42.646;23.400;2023-03-16T00:59:38;94207.63;;;3.78;78.86
22651;BME280;11492;42.646;23.400;2023-03-16T01:02:05;94208.75;;;3.83;78.95
22651;BME280;11492;42.646;23.400;2023-03-16T01:04:31;94217.81;;;3.70;79.10
22651;BME280;11492;42.646;23.400;2023-03-16T01:06:58;94207.31;;;3.81;78.37
22651;BME280;11492;42.646;23.400;2023-03-16T01:09:24;94207.00;;;3.84;79.02
22651;BME280;11492;42.646;23.400;2023-03-16T01:11:49;94202.34;;;3.87;78.64
22651;BME280;11492;42.646;23.400;2023-03-16T01:14:18;94206.97;;;3.76;78.09
22651;BME280;11492;42.646;23.400;2023-03-16T01:16:44;94197.38;;;3.54;78.92
22651;BME280;11492;42.646;23.400;2023-03-16T01:19:11;94203.88;;;3.41;79.78
22651;BME280;11492;42.646;23.400;2023-03-16T01:21:40;94198.66;;;3.43;79.71
22651;BME280;11492;42.646;23.400;2023-03-16T01:24:07;94193.41;;;3.52;79.32
22651;BME280;11492;42.646;23.400;2023-03-16T01:26:33;94206.97;;;3.60;79.12
22651;BME280;11492;42.646;23.400;2023-03-16T01:28:58;94213.66;;;3.61;79.37
22651;BME280;11492;42.646;23.400;2023-03-16T01:31:23;94211.75;;;3.71;79.85
22651;BME280;11492;42.646;23.400;2023-03-16T01:33:49;94210.97;;;3.78;79.12
22651;BME280;11492;42.646;23.400;2023-03-16T01:36:17;94209.38;;;3.70;79.96
22651;BME280;11492;42.646;23.400;2023-03-16T01:38:43;94213.53;;;3.86;79.89
22651;BME280;11492;42.646;23.400;2023-03-16T01:41:09;94213.38;;;3.80;79.03
22651;BME280;11492;42.646;23.400;2023-03-16T01:43:36;94213.22;;;3.89;79.07
22651;BME280;11492;42.646;23.400;2023-03-16T01:48:37;94216.53;;;3.82;80.39
22651;BME280;11492;42.646;23.400;2023-03-16T01:51:07;94220.66;;;3.44;79.32
22651;BME280;11492;42.646;23.400;2023-03-16T01:53:34;94214.09;;;3.33;79.86
22651;BME280;11492;42.646;23.400;2023-03-16T01:56:02;94227.94;;;3.31;79.45
22651;BME280;11492;42.646;23.400;2023-03-16T01:58:30;94228.28;;;3.51;80.12
22651;BME280;11492;42.646;23.400;2023-03-16T02:00:57;94244.09;;;3.47;80.29
22651;BME280;11492;42.646;23.400;2023-03-16T02:03:23;94220.94;;;3.33;79.03
22651;BME280;11492;42.646;23.400;2023-03-16T02:06:17;94236.88;;;3.27;79.93
22651;BME280;11492;42.646;23.400;2023-03-16T02:08:44;94226.94;;;3.16;80.13
22651;BME280;11492;42.646;23.400;2023-03-16T02:11:12;94229.22;;;3.35;79.57
22651;BME280;11492;42.646;23.400;2023-03-16T02:13:43;94234.94;;;3.21;79.08
22651;BME280;11492;42.646;23.400;2023-03-16T02:16:10;94246.09;;;3.28;79.18
22651;BME280;11492;42.646;23.400;2023-03-16T02:18:37;94240.63;;;3.15;79.65
22651;BME280;11492;42.646;23.400;2023-03-16T02:23:44;94248.78;;;3.19;79.59
22651;BME280;11492;42.646;23.400;2023-03-16T02:31:19;94263.94;;;3.28;79.71
22651;BME280;11492;42.646;23.400;2023-03-16T02:33:47;94266.78;;;3.25;79.58
22651;BME280;11492;42.646;23.400;2023-03-16T02:36:14;94266.94;;;3.16;79.71
22651;BME280;11492;42.646;23.400;2023-03-16T02:38:40;94265.81;;;3.18;80.32
22651;BME280;11492;42.646;23.400;2023-03-16T02:41:15;94269.16;;;3.11;80.01
22651;BME280;11492;42.646;23.400;2023-03-16T02:43:47;94281.69;;;3.04;81.16
22651;BME280;11492;42.646;23.400;2023-03-16T02:46:16;94289.34;;;3.04;80.62
22651;BME280;11492;42.646;23.400;2023-03-16T02:48:52;94281.06;;;3.10;80.72
22651;BME280;11492;42.646;23.400;2023-03-16T02:51:20;94287.19;;;3.25;80.48
22651;BME280;11492;42.646;23.400;2023-03-16T02:53:45;94286.31;;;3.01;81.04
22651;BME280;11492;42.646;23.400;2023-03-16T02:56:10;94287.19;;;3.17;80.61
22651;BME280;11492;42.646;23.400;2023-03-16T02:58:36;94289.69;;;3.09;80.48
22651;BME280;11492;42.646;23.400;2023-03-16T03:01:01;94260.41;;;2.80;80.88
22651;BME280;11492;42.646;23.400;2023-03-16T03:03:28;94295.09;;;3.06;81.38
22651;BME280;11492;42.646;23.400;2023-03-16T03:05:53;94286.91;;;2.95;82.14
22651;BME280;11492;42.646;23.400;2023-03-16T03:08:19;94295.06;;;2.73;82.50
22651;BME280;11492;42.646;23.400;2023-03-16T03:10:48;94299.78;;;2.94;82.48
22651;BME280;11492;42.646;23.400;2023-03-16T03:13:13;94302.44;;;2.84;82.90
22651;BME280;11492;42.646;23.400;2023-03-16T03:15:39;94302.16;;;2.87;82.28
22651;BME280;11492;42.646;23.400;2023-03-16T03:18:05;94304.88;;;2.94;82.94
22651;BME280;11492;42.646;23.400;2023-03-16T03:20:31;94302.41;;;3.01;81.74
22651;BME280;11492;42.646;23.400;2023-03-16T03:22:56;94293.59;;;2.96;82.49
22651;BME280;11492;42.646;23.400;2023-03-16T03:25:22;94301.28;;;3.04;81.68
22651;BME280;11492;42.646;23.400;2023-03-16T03:27:48;94315.63;;;3.05;82.08
22651;BME280;11492;42.646;23.400;2023-03-16T03:30:19;94312.97;;;2.89;81.80
22651;BME280;11492;42.646;23.400;2023-03-16T03:32:45;94305.94;;;2.83;82.07
22651;BME280;11492;42.646;23.400;2023-03-16T03:35:12;94303.16;;;2.69;82.00
22651;BME280;11492;42.646;23.400;2023-03-16T03:37:39;94311.22;;;2.90;81.73
22651;BME280;11492;42.646;23.400;2023-03-16T03:40:06;94320.69;;;2.97;82.05
22651;BME280;11492;42.646;23.400;2023-03-16T03:42:31;94302.22;;;2.70;81.48
22651;BME280;11492;42.646;23.400;2023-03-16T03:44:57;94298.25;;;2.75;81.91
22651;BME280;11492;42.646;23.400;2023-03-16T03:47:22;94314.50;;;2.49;81.32
22651;BME280;11492;42.646;23.400;2023-03-16T03:49:48;94320.03;;;2.45;82.23
22651;BME280;11492;42.646;23.400;2023-03-16T03:52:13;94307.00;;;2.31;82.61
22651;BME280;11492;42.646;23.400;2023-03-16T03:54:38;94344.09;;;2.50;83.68
22651;BME280;11492;42.646;23.400;2023-03-16T03:57:04;94340.44;;;2.53;82.57
22651;BME280;11492;42.646;23.400;2023-03-16T03:59:30;94351.41;;;2.71;83.20
22651;BME280;11492;42.646;23.400;2023-03-16T04:01:56;94363.09;;;2.39;82.50
22651;BME280;11492;42.646;23.400;2023-03-16T04:04:21;94360.41;;;2.40;82.83
22651;BME280;11492;42.646;23.400;2023-03-16T04:06:46;94347.38;;;2.26;81.79
22651;BME280;11492;42.646;23.400;2023-03-16T04:09:12;94354.56;;;2.47;83.23
22651;BME280;11492;42.646;23.400;2023-03-16T04:11:38;94356.22;;;2.56;82.73
22651;BME280;11492;42.646;23.400;2023-03-16T04:14:04;94361.56;;;2.46;81.43
22651;BME280;11492;42.646;23.400;2023-03-16T04:16:30;94362.56;;;2.52;81.58
22651;BME280;11492;42.646;23.400;2023-03-16T04:18:56;94363.50;;;2.51;81.31
22651;BME280;11492;42.646;23.400;2023-03-16T04:21:22;94354.50;;;2.40;82.20
22651;BME280;11492;42.646;23.400;2023-03-16T04:23:49;94367.03;;;2.33;82.35
22651;BME280;11492;42.646;23.400;2023-03-16T04:26:19;94362.78;;;2.42;81.95
22651;BME280;11492;42.646;23.400;2023-03-16T04:28:44;94354.28;;;2.50;83.43
22651;BME280;11492;42.646;23.400;2023-03-16T04:31:10;94364.53;;;3.00;84.81
22651;BME280;11492;42.646;23.400;2023-03-16T04:33:37;94382.59;;;2.90;81.97
22651;BME280;11492;42.646;23.400;2023-03-16T04:36:04;94391.16;;;2.64;80.96
22651;BME280;11492;42.646;23.400;2023-03-16T04:38:31;94379.91;;;2.74;81.61
22651;BME280;11492;42.646;23.400;2023-03-16T04:41:04;94389.78;;;2.94;82.46
22651;BME280;11492;42.646;23.400;2023-03-16T04:43:30;94390.53;;;2.87;81.37
22651;BME280;11492;42.646;23.400;2023-03-16T04:45:59;94400.94;;;2.93;80.87
22651;BME280;11492;42.646;23.400;2023-03-16T04:48:26;94403.91;;;2.89;80.10
22651;BME280;11492;42.646;23.400;2023-03-16T04:50:52;94403.63;;;2.92;80.38
22651;BME280;11492;42.646;23.400;2023-03-16T04:53:17;94414.84;;;2.98;81.09
22651;BME280;11492;42.646;23.400;2023-03-16T04:55:44;94411.19;;;3.26;81.69
22651;BME280;11492;42.646;23.400;2023-03-16T04:58:10;94417.03;;;2.94;79.28
22651;BME280;11492;42.646;23.400;2023-03-16T05:00:38;94404.88;;;2.88;79.07
22651;BME280;11492;42.646;23.400;2023-03-16T05:03:05;94430.44;;;2.78;80.40
22651;BME280;11492;42.646;23.400;2023-03-16T05:05:30;94423.38;;;2.72;80.85
22651;BME280;11492;42.646;23.400;2023-03-16T05:07:56;94419.44;;;2.78;80.33
22651;BME280;11492;42.646;23.400;2023-03-16T05:10:21;94433.56;;;2.90;80.64
22651;BME280;11492;42.646;23.400;2023-03-16T05:12:47;94425.38;;;2.61;79.80
22651;BME280;11492;42.646;23.400;2023-03-16T05:15:12;94427.03;;;2.70;80.65
22651;BME280;11492;42.646;23.400;2023-03-16T05:17:39;94430.22;;;2.72;80.68
22651;BME280;11492;42.646;23.400;2023-03-16T05:20:06;94422.00;;;2.78;81.01
22651;BME280;11492;42.646;23.400;2023-03-16T05:22:33;94452.69;;;2.94;79.75
22651;BME280;11492;42.646;23.400;2023-03-16T05:25:01;94442.31;;;2.70;79.96
22651;BME280;11492;42.646;23.400;2023-03-16T05:27:29;94435.69;;;2.77;80.04
22651;BME280;11492;42.646;23.400;2023-03-16T05:29:54;94449.34;;;2.93;80.03
22651;BME280;11492;42.646;23.400;2023-03-16T05:32:20;94429.81;;;2.59;78.80
22651;BME280;11492;42.646;23.400;2023-03-16T05:34:46;94456.38;;;2.57;79.26
22651;BME280;11492;42.646;23.400;2023-03-16T05:37:11;94458.91;;;2.40;79.16
22651;BME280;11492;42.646;23.400;2023-03-16T05:39:37;94469.16;;;2.47;78.60
22651;BME280;11492;42.646;23.400;2023-03-16T05:42:03;94466.63;;;2.47;79.78
22651;BME280;11492;42.646;23.400;2023-03-16T05:44:30;94467.81;;;2.70;80.00
22651;BME280;11492;42.646;23.400;2023-03-16T05:46:56;94465.97;;;2.63;80.26
22651;BME280;11492;42.646;23.400;2023-03-16T05:49:21;94457.63;;;2.70;79.38
22651;BME280;11492;42.646;23.400;2023-03-16T05:51:47;94477.75;;;2.64;79.12
22651;BME280;11492;42.646;23.400;2023-03-16T05:54:14;94479.53;;;2.80;79.23
22651;BME280;11492;42.646;23.400;2023-03-16T05:56:40;94471.84;;;2.97;80.06
22651;BME280;11492;42.646;23.400;2023-03-16T05:59:05;94463.94;;;3.00;79.79
22651;BME280;11492;42.646;23.400;2023-03-16T06:01:31;94479.09;;;2.85;79.57
22651;BME280;11492;42.646;23.400;2023-03-16T06:03:58;94486.72;;;2.68;78.98
22651;BME280;11492;42.646;23.400;2023-03-16T06:06:23;94493.56;;;2.67;79.66
22651;BME280;11492;42.646;23.400;2023-03-16T06:08:49;94489.69;;;2.63;79.71
22651;BME280;11492;42.646;23.400;2023-03-16T06:11:14;94492.53;;;2.60;80.54
22651;BME280;11492;42.646;23.400;2023-03-16T06:13:40;94485.69;;;2.78;80.42
22651;BME280;11492;42.646;23.400;2023-03-16T06:16:06;94505.00;;;2.80;80.60
22651;BME280;11492;42.646;23.400;2023-03-16T06:18:33;94498.38;;;2.70;79.62
22651;BME280;11492;42.646;23.400;2023-03-16T06:20:59;94499.97;;;2.88;79.53
22651;BME280;11492;42.646;23.400;2023-03-16T06:23:24;94517.88;;;2.79;80.13
22651;BME280;11492;42.646;23.400;2023-03-16T06:25:50;94523.13;;;2.95;80.07
22651;BME280;11492;42.646;23.400;2023-03-16T06:28:18;94529.03;;;2.95;79.74
22651;BME280;11492;42.646;23.400;2023-03-16T06:30:44;94529.09;;;2.86;79.21
22651;BME280;11492;42.646;23.400;2023-03-16T06:33:09;94509.44;;;2.96;79.82
22651;BME280;11492;42.646;23.400;2023-03-16T06:35:37;94522.97;;;3.13;79.62
22651;BME280;11492;42.646;23.400;2023-03-16T06:38:03;94524.88;;;3.11;78.35
22651;BME280;11492;42.646;23.400;2023-03-16T06:40:28;94542.41;;;3.31;79.07
22651;BME280;11492;42.646;23.400;2023-03-16T06:42:54;94540.34;;;3.35;77.90
22651;BME280;11492;42.646;23.400;2023-03-16T06:45:19;94532.91;;;3.41;77.96
22651;BME280;11492;42.646;23.400;2023-03-16T06:47:50;94537.00;;;3.34;76.63
22651;BME280;11492;42.646;23.400;2023-03-16T06:50:15;94549.59;;;3.36;76.20
22651;BME280;11492;42.646;23.400;2023-03-16T06:52:41;94542.34;;;3.06;75.65
22651;BME280;11492;42.646;23.400;2023-03-16T06:55:07;94546.78;;;3.22;76.30
22651;BME280;11492;42.646;23.400;2023-03-16T06:57:33;94537.63;;;3.11;75.83
22651;BME280;11492;42.646;23.400;2023-03-16T06:59:58;94562.34;;;3.36;75.90
22651;BME280;11492;42.646;23.400;2023-03-16T07:02:24;94565.06;;;3.17;75.19
22651;BME280;11492;42.646;23.400;2023-03-16T07:04:49;94565.53;;;2.96;76.16
22651;BME280;11492;42.646;23.400;2023-03-16T07:07:15;94559.03;;;3.18;76.76
22651;BME280;11492;42.646;23.400;2023-03-16T07:09:41;94575.22;;;3.26;76.98
22651;BME280;11492;42.646;23.400;2023-03-16T07:12:07;94562.75;;;3.06;75.72
22651;BME280;11492;42.646;23.400;2023-03-16T07:14:33;94565.56;;;3.03;75.23
22651;BME280;11492;42.646;23.400;2023-03-16T07:16:59;94587.06;;;3.18;75.62
22651;BME280;11492;42.646;23.400;2023-03-16T07:19:24;94576.50;;;3.13;74.47
22651;BME280;11492;42.646;23.400;2023-03-16T07:21:49;94579.84;;;3.31;76.68
22651;BME280;11492;42.646;23.400;2023-03-16T07:24:15;94577.75;;;3.44;75.50
22651;BME280;11492;42.646;23.400;2023-03-16T07:26:41;94579.94;;;3.39;74.39
22651;BME280;11492;42.646;23.400;2023-03-16T07:29:07;94587.22;;;3.34;75.59
22651;BME280;11492;42.646;23.400;2023-03-16T07:31:34;94590.91;;;3.56;75.63
22651;BME280;11492;42.646;23.400;2023-03-16T07:34:00;94596.19;;;3.80;76.72
22651;BME280;11492;42.646;23.400;2023-03-16T07:36:26;94585.38;;;3.86;75.71
22651;BME280;11492;42.646;23.400;2023-03-16T07:38:52;94580.56;;;3.83;74.81
22651;BME280;11492;42.646;23.400;2023-03-16T07:41:18;94594.16;;;3.83;75.03
22651;BME280;11492;42.646;23.400;2023-03-16T07:43:43;94597.09;;;3.96;75.20
22651;BME280;11492;42.646;23.400;2023-03-16T07:46:12;94598.50;;;3.91;74.60
22651;BME280;11492;42.646;23.400;2023-03-16T07:48:43;94603.16;;;3.95;74.55
22651;BME280;11492;42.646;23.400;2023-03-16T07:51:12;94612.25;;;3.97;74.51
22651;BME280;11492;42.646;23.400;2023-03-16T07:53:38;94607.66;;;4.01;74.05
22651;BME280;11492;42.646;23.400;2023-03-16T07:56:04;94615.88;;;4.12;73.45
22651;BME280;11492;42.646;23.400;2023-03-16T07:58:30;94617.34;;;4.15;72.43
22651;BME280;11492;42.646;23.400;2023-03-16T08:00:57;94622.94;;;4.18;73.69
22651;BME280;11492;42.646;23.400;2023-03-16T08:03:24;94607.31;;;3.96;71.83
22651;BME280;11492;42.646;23.400;2023-03-16T08:05:49;94618.59;;;4.11;72.35
22651;BME280;11492;42.646;23.400;2023-03-16T08:08:16;94606.81;;;3.93;72.54
22651;BME280;11492;42.646;23.400;2023-03-16T08:10:42;94629.78;;;3.93;73.20
22651;BME280;11492;42.646;23.400;2023-03-16T08:13:08;94625.44;;;4.10;72.58
22651;BME280;11492;42.646;23.400;2023-03-16T08:15:33;94630.16;;;4.22;73.11
22651;BME280;11492;42.646;23.400;2023-03-16T08:18:00;94634.38;;;4.31;72.03
22651;BME280;11492;42.646;23.400;2023-03-16T08:20:28;94640.16;;;4.16;70.36
22651;BME280;11492;42.646;23.400;2023-03-16T08:22:54;94636.25;;;4.29;70.77
22651;BME280;11492;42.646;23.400;2023-03-16T08:25:19;94639.47;;;4.06;70.85
22651;BME280;11492;42.646;23.400;2023-03-16T08:27:45;94635.56;;;3.95;71.04
22651;BME280;11492;42.646;23.400;2023-03-16T08:30:14;94638.69;;;4.14;72.08
22651;BME280;11492;42.646;23.400;2023-03-16T08:32:40;94648.53;;;4.26;72.71
22651;BME280;11492;42.646;23.400;2023-03-16T08:35:07;94643.63;;;4.07;72.41
22651;BME280;11492;42.646;23.400;2023-03-16T08:37:34;94650.75;;;4.21;72.83
22651;BME280;11492;42.646;23.400;2023-03-16T08:39:59;94637.53;;;4.25;71.99
22651;BME280;11492;42.646;23.400;2023-03-16T08:42:25;94647.66;;;4.35;71.63
22651;BME280;11492;42.646;23.400;2023-03-16T08:44:51;94632.50;;;4.41;71.23
22651;BME280;11492;42.646;23.400;2023-03-16T08:47:20;94652.41;;;4.63;71.37
22651;BME280;11492;42.646;23.400;2023-03-16T08:49:45;94664.31;;;4.47;71.22
22651;BME280;11492;42.646;23.400;2023-03-16T08:52:11;94666.88;;;4.47;70.88
22651;BME280;11492;42.646;23.400;2023-03-16T08:54:38;94657.69;;;4.61;71.24
22651;BME280;11492;42.646;23.400;2023-03-16T08:57:03;94667.38;;;4.83;70.65
22651;BME280;11492;42.646;23.400;2023-03-16T08:59:29;94665.00;;;4.56;69.29
22651;BME280;11492;42.646;23.400;2023-03-16T09:01:54;94667.91;;;4.61;70.66
22651;BME280;11492;42.646;23.400;2023-03-16T09:04:20;94669.59;;;4.45;70.06
22651;BME280;11492;42.646;23.400;2023-03-16T09:06:46;94666.78;;;4.56;69.99
22651;BME280;11492;42.646;23.400;2023-03-16T09:09:12;94665.00;;;4.56;69.63
22651;BME280;11492;42.646;23.400;2023-03-16T09:11:37;94674.53;;;4.47;69.49
22651;BME280;11492;42.646;23.400;2023-03-16T09:14:02;94673.84;;;4.37;69.14
22651;BME280;11492;42.646;23.400;2023-03-16T09:16:28;94678.44;;;4.58;71.05
22651;BME280;11492;42.646;23.400;2023-03-16T09:18:55;94665.66;;;4.58;69.52
22651;BME280;11492;42.646;23.400;2023-03-16T09:21:20;94671.16;;;4.71;70.29
22651;BME280;11492;42.646;23.400;2023-03-16T09:23:46;94684.25;;;4.76;68.91
22651;BME280;11492;42.646;23.400;2023-03-16T09:26:12;94674.53;;;4.72;68.94
22651;BME280;11492;42.646;23.400;2023-03-16T09:28:38;94676.94;;;4.48;66.85
22651;BME280;11492;42.646;23.400;2023-03-16T09:31:05;94665.75;;;4.49;68.24
22651;BME280;11492;42.646;23.400;2023-03-16T09:33:32;94688.03;;;4.64;68.60
22651;BME280;11492;42.646;23.400;2023-03-16T09:35:59;94678.50;;;4.74;68.85
22651;BME280;11492;42.646;23.400;2023-03-16T09:38:25;94679.75;;;4.62;68.52
22651;BME280;11492;42.646;23.400;2023-03-16T09:46:42;94682.38;;;5.19;68.84
22651;BME280;11492;42.646;23.400;2023-03-16T09:49:10;94685.97;;;5.33;69.58
22651;BME280;11492;42.646;23.400;2023-03-16T09:52:03;94691.16;;;5.16;66.86
22651;BME280;11492;42.646;23.400;2023-03-16T09:54:57;94692.91;;;5.16;67.33
22651;BME280;11492;42.646;23.400;2023-03-16T09:57:32;94694.66;;;4.74;65.75
22651;BME280;11492;42.646;23.400;2023-03-16T10:05:19;94700.81;;;4.64;67.28
22651;BME280;11492;42.646;23.400;2023-03-16T10:15:51;94696.47;;;4.90;69.62
22651;BME280;11492;42.646;23.400;2023-03-16T10:18:22;94699.94;;;4.81;68.79
22651;BME280;11492;42.646;23.400;2023-03-16T10:20:51;94700.97;;;4.96;70.94
22651;BME280;11492;42.646;23.400;2023-03-16T10:23:20;94692.63;;;4.86;69.51
22651;BME280;11492;42.646;23.400;2023-03-16T10:25:50;94699.38;;;4.95;69.98
22651;BME280;11492;42.646;23.400;2023-03-16T10:28:24;94692.84;;;5.00;70.09
22651;BME280;11492;42.646;23.400;2023-03-16T10:30:53;94698.66;;;5.10;69.88
22651;BME280;11492;42.646;23.400;2023-03-16T10:33:24;94703.13;;;5.08;68.82
22651;BME280;11492;42.646;23.400;2023-03-16T10:35:52;94694.56;;;5.24;68.85
22651;BME280;11492;42.646;23.400;2023-03-16T10:43:42;94695.81;;;5.13;66.52
22651;BME280;11492;42.646;23.400;2023-03-16T10:46:09;94683.09;;;4.96;66.38
22651;BME280;11492;42.646;23.400;2023-03-16T10:48:36;94693.28;;;4.88;67.82
22651;BME280;11492;42.646;23.400;2023-03-16T10:51:06;94691.75;;;5.02;68.05
22651;BME280;11492;42.646;23.400;2023-03-16T10:53:34;94696.72;;;5.04;67.16
22651;BME280;11492;42.646;23.400;2023-03-16T10:56:08;94695.53;;;5.31;68.80
22651;BME280;11492;42.646;23.400;2023-03-16T10:58:39;94701.84;;;5.12;66.16
22651;BME280;11492;42.646;23.400;2023-03-16T11:01:26;94701.03;;;5.03;66.06
22651;BME280;11492;42.646;23.400;2023-03-16T11:03:54;94700.03;;;4.96;66.85
22651;BME280;11492;42.646;23.400;2023-03-16T11:06:29;94700.72;;;5.06;66.36
22651;BME280;11492;42.646;23.400;2023-03-16T11:09:09;94702.63;;;5.04;65.84
22651;BME280;11492;42.646;23.400;2023-03-16T11:11:37;94696.09;;;5.02;66.56
22651;BME280;11492;42.646;23.400;2023-03-16T11:14:11;94699.34;;;5.27;66.91
22651;BME280;11492;42.646;23.400;2023-03-16T11:17:13;94699.25;;;5.45;65.79
22651;BME280;11492;42.646;23.400;2023-03-16T11:19:51;94707.84;;;5.28;64.25
22651;BME280;11492;42.646;23.400;2023-03-16T11:22:24;94691.22;;;5.32;64.20
22651;BME280;11492;42.646;23.400;2023-03-16T11:25:11;94688.91;;;5.54;64.29
22651;BME280;11492;42.646;23.400;2023-03-16T11:27:48;94700.41;;;5.50;63.28
22651;BME280;11492;42.646;23.400;2023-03-16T11:30:18;94699.84;;;5.31;63.30
22651;BME280;11492;42.646;23.400;2023-03-16T11:32:49;94702.41;;;5.23;64.65
22651;BME280;11492;42.646;23.400;2023-03-16T11:35:37;94706.44;;;5.41;65.02
22651;BME280;11492;42.646;23.400;2023-03-16T11:38:12;94703.13;;;5.56;64.77
22651;BME280;11492;42.646;23.400;2023-03-16T11:40:57;94707.03;;;5.27;65.00
22651;BME280;11492;42.646;23.400;2023-03-16T11:46:12;94695.59;;;5.63;64.98
22651;BME280;11492;42.646;23.400;2023-03-16T11:51:47;94695.81;;;5.69;63.52
22651;BME280;11492;42.646;23.400;2023-03-16T11:56:58;94698.22;;;5.71;63.79
22651;BME280;11492;42.646;23.400;2023-03-16T12:15:39;94711.56;;;5.41;63.58
22651;BME280;11492;42.646;23.400;2023-03-16T12:21:00;94721.97;;;5.40;64.01
22651;BME280;11492;42.646;23.400;2023-03-16T12:26:13;94721.78;;;5.33;63.79
22651;BME280;11492;42.646;23.400;2023-03-16T12:28:40;94724.75;;;5.21;65.25
22651;BME280;11492;42.646;23.400;2023-03-16T12:31:28;94739.41;;;5.03;64.47
22651;BME280;11492;42.646;23.400;2023-03-16T12:42:09;94740.91;;;4.89;67.60
22651;BME280;11492;42.646;23.400;2023-03-16T12:48:02;94749.00;;;4.51;66.12
22651;BME280;11492;42.646;23.400;2023-03-16T12:50:31;94748.44;;;4.65;67.04
22651;BME280;11492;42.646;23.400;2023-03-16T12:52:57;94738.09;;;4.49;65.72
22651;BME280;11492;42.646;23.400;2023-03-16T12:55:43;94750.06;;;4.49;66.49
22651;BME280;11492;42.646;23.400;2023-03-16T12:58:09;94753.06;;;4.45;67.30
22651;BME280;11492;42.646;23.400;2023-03-16T13:00:39;94740.97;;;4.47;67.02
22651;BME280;11492;42.646;23.400;2023-03-16T13:03:19;94759.66;;;4.47;68.12
22651;BME280;11492;42.646;23.400;2023-03-16T13:05:50;94762.16;;;4.64;68.12
22651;BME280;11492;42.646;23.400;2023-03-16T13:08:18;94762.72;;;4.50;69.37
22651;BME280;11492;42.646;23.400;2023-03-16T13:11:04;94757.06;;;4.22;69.86
22651;BME280;11492;42.646;23.400;2023-03-16T13:13:31;94767.03;;;4.33;71.43
22651;BME280;11492;42.646;23.400;2023-03-16T13:16:07;94770.59;;;4.40;71.98
22651;BME280;11492;42.646;23.400;2023-03-16T13:18:40;94769.88;;;4.47;72.33
22651;BME280;11492;42.646;23.400;2023-03-16T13:24:27;94778.59;;;4.37;71.49
22651;BME280;11492;42.646;23.400;2023-03-16T13:26:57;94778.53;;;4.54;72.79
22651;BME280;11492;42.646;23.400;2023-03-16T13:29:30;94778.47;;;4.63;73.02
22651;BME280;11492;42.646;23.400;2023-03-16T13:31:58;94784.47;;;4.79;73.30
22651;BME280;11492;42.646;23.400;2023-03-16T13:34:31;94795.91;;;4.68;71.48
22651;BME280;11492;42.646;23.400;2023-03-16T13:36:59;94785.72;;;4.50;71.91
22651;BME280;11492;42.646;23.400;2023-03-16T13:39:27;94788.41;;;4.66;73.27
22651;BME280;11492;42.646;23.400;2023-03-16T13:41:55;94783.41;;;4.65;72.76
22651;BME280;11492;42.646;23.400;2023-03-16T13:44:22;94776.44;;;4.49;72.20
22651;BME280;11492;42.646;23.400;2023-03-16T13:46:49;94794.78;;;4.70;73.40
22651;BME280;11492;42.646;23.400;2023-03-16T13:49:15;94777.06;;;4.69;73.19
22651;BME280;11492;42.646;23.400;2023-03-16T13:51:40;94794.69;;;4.54;73.36
22651;BME280;11492;42.646;23.400;2023-03-16T13:54:19;94785.81;;;4.41;72.14
22651;BME280;11492;42.646;23.400;2023-03-16T13:56:46;94791.91;;;4.48;73.06
22651;BME280;11492;42.646;23.400;2023-03-16T13:59:11;94786.16;;;4.29;73.29
22651;BME280;11492;42.646;23.400;2023-03-16T14:01:37;94804.94;;;4.20;73.45
22651;BME280;11492;42.646;23.400;2023-03-16T14:04:09;94813.53;;;4.19;74.12
22651;BME280;11492;42.646;23.400;2023-03-16T14:06:38;94805.53;;;4.14;74.13
22651;BME280;11492;42.646;23.400;2023-03-16T14:09:11;94815.97;;;4.21;73.92
22651;BME280;11492;42.646;23.400;2023-03-16T14:11:39;94802.66;;;4.51;74.85
22651;BME280;11492;42.646;23.400;2023-03-16T14:14:22;94814.34;;;4.79;72.57
22651;BME280;11492;42.646;23.400;2023-03-16T14:16:48;94808.41;;;4.53;72.66
22651;BME280;11492;42.646;23.400;2023-03-16T14:19:20;94804.69;;;4.48;73.33
22651;BME280;11492;42.646;23.400;2023-03-16T14:21:49;94827.56;;;4.15;72.68
22651;BME280;11492;42.646;23.400;2023-03-16T14:26:56;94812.31;;;4.23;74.25